Time;durP1;ratioP1;P1;durP2;ratioP2;P2;SDS_P1;SDS_P2;PMS_P1;PMS_P2;Temp;Humidity;BMP_temperature;BMP_pressure;BME280_temperature;BME280_humidity;BME280_pressure;Samples;Min_cycle;Max_cycle;Signal;HPM_P1;HPM_P2
2022/05/12 00:00:28;;;;;;;;;;;;;;;22.03;28.93;98253.47;5020753;28;943;-76
2022/05/12 00:02:53;;;;;;;;;;;;;;;21.77;29.49;98253.25;5016047;28;1902;-76
2022/05/12 00:05:19;;;;;;;;;;;;;;;21.72;29.56;98253.78;5013373;28;935;-76
2022/05/12 00:07:44;;;;;;;;;;;;;;;21.76;29.06;98253.66;4993804;28;939;-76
2022/05/12 00:10:10;;;;;;;;;;;;;;;21.60;29.56;98257.28;4993820;28;896;-75
2022/05/12 00:12:36;;;;;;;;;;;;;;;21.51;29.68;98257.09;4961558;28;1292;-76
2022/05/12 00:15:03;;;;;;;;;;;;;;;21.49;29.66;98251.84;4993809;28;1065;-75
2022/05/12 00:17:28;;;;;;;;;;;;;;;21.30;29.78;98250.66;4994193;28;1019;-76
2022/05/12 00:19:53;;;;;;;;;;;;;;;21.71;29.72;98252.19;4993840;28;1083;-76
2022/05/12 00:22:19;;;;;;;;;;;;;;;22.03;29.19;98250.63;4994381;28;1032;-75
2022/05/12 00:24:44;;;;;;;;;;;;;;;22.28;28.68;98244.38;4993974;28;1906;-75
2022/05/12 00:27:10;;;;;;;;;;;;;;;22.14;28.64;98245.53;4961309;28;1016;-76
2022/05/12 00:29:35;;;;;;;;;;;;;;;21.85;28.99;98246.16;4994035;28;956;-76
2022/05/12 00:32:01;;;;;;;;;;;;;;;21.74;29.36;98245.63;4994065;28;1012;-76
2022/05/12 00:34:26;;;;;;;;;;;;;;;21.76;29.14;98254.50;4993759;28;1054;-76
2022/05/12 00:36:51;;;;;;;;;;;;;;;21.77;29.01;98249.63;4994001;28;945;-76
2022/05/12 00:39:17;;;;;;;;;;;;;;;21.61;29.68;98253.22;5009750;28;964;-76
2022/05/12 00:41:42;;;;;;;;;;;;;;;21.58;29.89;98251.25;5015675;28;1040;-76
2022/05/12 00:44:09;;;;;;;;;;;;;;;21.63;29.38;98245.09;5013436;28;1902;-75
2022/05/12 00:46:35;;;;;;;;;;;;;;;21.65;29.33;98248.25;5015920;28;923;-76
2022/05/12 00:49:13;;;;;;;;;;;;;;;21.61;29.73;98246.78;5015607;28;870;-76
2022/05/12 00:51:52;;;;;;;;;;;;;;;21.59;30.00;98244.34;5013233;28;997;-76
2022/05/12 00:54:40;;;;;;;;;;;;;;;21.91;29.46;98240.78;4974297;28;987;-76
2022/05/12 00:57:07;;;;;;;;;;;;;;;22.17;29.26;98244.63;4955109;29;957;-76
2022/05/12 00:59:32;;;;;;;;;;;;;;;21.58;29.68;98242.78;4955601;29;1137;-76
2022/05/12 01:01:58;;;;;;;;;;;;;;;21.66;29.46;98247.03;4955068;29;1048;-76
2022/05/12 01:04:23;;;;;;;;;;;;;;;21.69;29.51;98242.53;4974110;28;1907;-76
2022/05/12 01:06:49;;;;;;;;;;;;;;;21.69;29.48;98254.66;4974083;28;1035;-76
2022/05/12 01:09:15;;;;;;;;;;;;;;;21.66;29.73;98255.53;4973834;28;1052;-76
2022/05/12 01:11:40;;;;;;;;;;;;;;;21.56;29.64;98251.72;4974393;28;1020;-76
2022/05/12 01:14:06;;;;;;;;;;;;;;;21.48;29.79;98249.47;4974072;28;1034;-76
2022/05/12 01:16:33;;;;;;;;;;;;;;;21.50;30.55;98252.66;4974275;28;948;-76
2022/05/12 01:18:58;;;;;;;;;;;;;;;21.98;29.42;98248.31;4974707;28;1040;-75
2022/05/12 01:21:24;;;;;;;;;;;;;;;22.06;29.25;98255.41;4997075;28;1003;-75
2022/05/12 01:23:49;;;;;;;;;;;;;;;21.71;29.54;98257.03;4977565;28;1902;-76
2022/05/12 01:26:15;;;;;;;;;;;;;;;21.63;29.78;98250.75;4995086;28;986;-76
2022/05/12 01:28:40;;;;;;;;;;;;;;;21.66;29.60;98258.38;4996892;28;1010;-76
2022/05/12 01:31:06;;;;;;;;;;;;;;;21.49;29.97;98256.72;4996930;28;955;-76
2022/05/12 01:33:32;;;;;;;;;;;;;;;21.75;30.28;98252.88;4996702;28;1002;-76
2022/05/12 01:35:57;;;;;;;;;;;;;;;22.04;29.56;98252.22;5011104;28;1139;-76
2022/05/12 01:38:23;;;;;;;;;;;;;;;21.88;29.41;98255.84;5015780;28;1023;-76
2022/05/12 01:40:48;;;;;;;;;;;;;;;21.71;29.56;98249.34;5016370;28;1326;-75
2022/05/12 01:43:14;;;;;;;;;;;;;;;21.62;29.96;98243.50;5016077;28;1983;-76
2022/05/12 01:45:39;;;;;;;;;;;;;;;21.56;29.64;98245.25;5016563;28;1159;-76
2022/05/12 01:48:05;;;;;;;;;;;;;;;21.49;29.80;98253.88;5015981;28;917;-76
2022/05/12 01:50:31;;;;;;;;;;;;;;;21.67;30.04;98251.47;5015837;28;959;-76
2022/05/12 01:52:56;;;;;;;;;;;;;;;21.81;29.70;98255.97;5030382;28;1085;-76
2022/05/12 01:55:26;;;;;;;;;;;;;;;22.21;28.86;98253.84;5002471;28;1018;-76
2022/05/12 01:57:52;;;;;;;;;;;;;;;21.80;29.52;98246.69;5035898;28;963;-76
2022/05/12 02:00:18;;;;;;;;;;;;;;;21.52;29.78;98247.38;4996177;28;1010;-76
2022/05/12 02:02:44;;;;;;;;;;;;;;;21.60;29.87;98251.59;4979624;28;1017;-76
2022/05/12 02:05:10;;;;;;;;;;;;;;;21.61;29.55;98253.22;4996368;28;1915;-76
2022/05/12 02:07:37;;;;;;;;;;;;;;;21.59;29.76;98256.47;4979941;28;1095;-76
2022/05/12 02:10:03;;;;;;;;;;;;;;;21.53;29.72;98252.56;4976642;28;959;-76
2022/05/12 02:12:29;;;;;;;;;;;;;;;21.44;29.96;98243.09;4957282;28;1084;-76
2022/05/12 02:14:54;;;;;;;;;;;;;;;21.48;29.83;98250.25;4957089;28;999;-76
2022/05/12 02:17:20;;;;;;;;;;;;;;;21.77;29.83;98247.59;4957408;28;968;-76
2022/05/12 02:19:45;;;;;;;;;;;;;;;21.92;29.40;98250.09;4957187;28;959;-75
2022/05/12 02:22:10;;;;;;;;;;;;;;;22.22;28.97;98252.59;4957091;28;1137;-76
2022/05/12 02:24:36;;;;;;;;;;;;;;;21.69;29.83;98243.31;4956606;28;1910;-75
2022/05/12 02:27:02;;;;;;;;;;;;;;;21.62;29.65;98254.81;4956997;28;1002;-76
2022/05/12 02:29:27;;;;;;;;;;;;;;;21.72;29.34;98250.94;4956266;28;1196;-76
2022/05/12 02:31:53;;;;;;;;;;;;;;;21.52;29.90;98251.00;4971610;28;994;-76
2022/05/12 02:34:18;;;;;;;;;;;;;;;21.63;29.48;98255.63;4976323;28;923;-75
2022/05/12 02:37:02;;;;;;;;;;;;;;;21.58;29.89;98259.75;4976127;28;1022;-75
2022/05/12 02:39:28;;;;;;;;;;;;;;;21.74;30.50;98250.50;4976165;28;1042;-76
2022/05/12 02:41:53;;;;;;;;;;;;;;;22.01;29.53;98265.22;4989642;28;1244;-76
2022/05/12 02:44:19;;;;;;;;;;;;;;;22.20;29.26;98260.75;4995454;28;1910;-76
2022/05/12 02:46:44;;;;;;;;;;;;;;;21.80;29.47;98266.53;4995712;28;907;-76
2022/05/12 02:49:09;;;;;;;;;;;;;;;21.81;29.68;98256.81;4995226;28;1000;-76
2022/05/12 02:51:35;;;;;;;;;;;;;;;21.55;29.97;98263.44;4995578;28;936;-76
2022/05/12 02:54:00;;;;;;;;;;;;;;;21.69;29.89;98268.81;4995278;28;934;-77
2022/05/12 02:56:26;;;;;;;;;;;;;;;21.68;29.80;98269.25;4995216;28;948;-76
2022/05/12 02:58:51;;;;;;;;;;;;;;;21.88;30.19;98266.38;4994917;28;988;-76
2022/05/12 03:01:17;;;;;;;;;;;;;;;22.00;30.17;98268.50;4995496;28;906;-76
2022/05/12 03:03:42;;;;;;;;;;;;;;;21.90;29.87;98269.53;4995105;28;1906;-76
2022/05/12 03:06:08;;;;;;;;;;;;;;;21.60;30.47;98268.59;4995067;28;920;-75
2022/05/12 03:08:33;;;;;;;;;;;;;;;21.77;29.76;98273.09;4994686;28;938;-76
2022/05/12 03:10:59;;;;;;;;;;;;;;;21.56;30.03;98270.75;4994976;28;1016;-76
2022/05/12 03:13:24;;;;;;;;;;;;;;;21.63;29.91;98270.56;4995021;28;882;-77
2022/05/12 03:15:50;;;;;;;;;;;;;;;21.65;30.24;98276.56;4994914;28;934;-76
2022/05/12 03:18:15;;;;;;;;;;;;;;;21.67;29.93;98268.47;4996205;28;986;-76
2022/05/12 03:20:41;;;;;;;;;;;;;;;21.68;30.06;98280.56;5016868;28;879;-77
2022/05/12 03:23:07;;;;;;;;;;;;;;;21.55;30.37;98280.44;5016523;28;1902;-76
2022/05/12 03:25:32;;;;;;;;;;;;;;;21.73;30.70;98278.03;5014670;28;970;-76
2022/05/12 03:27:59;;;;;;;;;;;;;;;22.09;29.95;98280.03;5016889;28;848;-76
2022/05/12 03:30:25;;;;;;;;;;;;;;;21.98;29.95;98279.50;5016642;28;894;-76
2022/05/12 03:32:51;;;;;;;;;;;;;;;21.69;30.18;98279.34;5016619;28;949;-76
2022/05/12 03:35:16;;;;;;;;;;;;;;;21.77;29.99;98281.56;5034173;28;954;-75
2022/05/12 03:37:42;;;;;;;;;;;;;;;21.73;30.02;98275.19;5034275;28;940;-76
2022/05/12 03:40:08;;;;;;;;;;;;;;;21.66;30.27;98278.19;5033838;28;1041;-76
2022/05/12 03:42:33;;;;;;;;;;;;;;;21.56;30.23;98280.03;5032942;28;1206;-76
2022/05/12 03:44:59;;;;;;;;;;;;;;;21.58;30.55;98279.56;5033606;28;1914;-76
2022/05/12 03:47:33;;;;;;;;;;;;;;;21.63;30.96;98284.72;5034139;28;1013;-76
2022/05/12 03:50:03;;;;;;;;;;;;;;;21.85;30.29;98290.69;5033486;28;941;-76
2022/05/12 03:52:29;;;;;;;;;;;;;;;21.78;30.26;98291.66;5017312;28;1009;-76
2022/05/12 03:54:54;;;;;;;;;;;;;;;21.55;30.90;98288.94;5033819;28;1012;-76
2022/05/12 03:57:20;;;;;;;;;;;;;;;21.67;30.51;98291.13;5033118;28;974;-75
2022/05/12 03:59:48;;;;;;;;;;;;;;;21.67;30.46;98285.44;5013729;28;989;-76
2022/05/12 04:02:13;;;;;;;;;;;;;;;21.57;30.35;98290.09;5013873;28;994;-76
2022/05/12 04:04:41;;;;;;;;;;;;;;;21.55;30.35;98300.25;5013631;28;1914;-76
2022/05/12 04:07:06;;;;;;;;;;;;;;;21.51;30.88;98305.22;5030584;28;1334;-76
2022/05/12 04:09:32;;;;;;;;;;;;;;;21.49;30.67;98302.00;5033332;28;1016;-76
2022/05/12 04:11:57;;;;;;;;;;;;;;;21.60;30.73;98313.91;5033589;28;1042;-76
2022/05/12 04:14:23;;;;;;;;;;;;;;;21.68;31.24;98309.69;5033199;28;929;-75
2022/05/12 04:16:48;;;;;;;;;;;;;;;21.89;31.07;98314.09;5033300;28;1277;-76
2022/05/12 04:19:14;;;;;;;;;;;;;;;22.27;30.15;98305.91;5033382;28;966;-75
2022/05/12 04:21:39;;;;;;;;;;;;;;;21.80;30.68;98317.50;5033419;28;950;-76
2022/05/12 04:24:05;;;;;;;;;;;;;;;21.83;30.46;98318.69;5016764;28;1914;-76
2022/05/12 04:26:32;;;;;;;;;;;;;;;21.58;30.84;98327.72;5017007;28;1215;-76
2022/05/12 04:28:57;;;;;;;;;;;;;;;21.67;30.64;98319.44;5033393;28;993;-76
2022/05/12 04:31:22;;;;;;;;;;;;;;;21.68;30.50;98335.19;5045610;28;1177;-76
2022/05/12 04:36:32;;;;;;;;;;;;;;;21.57;31.17;98321.25;5035803;28;937;-76
2022/05/12 04:38:59;;;;;;;;;;;;;;;21.76;31.50;98333.81;5035740;28;905;-75
2022/05/12 04:41:25;;;;;;;;;;;;;;;21.92;31.46;98335.09;5035714;28;1474;-76
2022/05/12 04:43:50;;;;;;;;;;;;;;;22.24;30.61;98328.69;5035433;28;1910;-76
2022/05/12 04:46:16;;;;;;;;;;;;;;;21.84;31.02;98332.41;5035462;28;909;-75
2022/05/12 04:48:41;;;;;;;;;;;;;;;21.75;31.24;98326.53;5035621;28;846;-75
2022/05/12 04:51:07;;;;;;;;;;;;;;;21.71;31.16;98331.50;5035583;28;1068;-76
2022/05/12 04:53:33;;;;;;;;;;;;;;;21.62;31.14;98333.31;5037316;28;912;-76
2022/05/12 04:55:59;;;;;;;;;;;;;;;21.82;31.00;98326.38;5039139;28;908;-76
2022/05/12 04:58:26;;;;;;;;;;;;;;;21.72;30.97;98333.06;5038933;28;917;-76
2022/05/12 05:00:51;;;;;;;;;;;;;;;21.65;30.92;98333.22;5038169;28;943;-76
2022/05/12 05:03:17;;;;;;;;;;;;;;;21.64;31.10;98334.47;5038579;28;1975;-76
2022/05/12 05:05:42;;;;;;;;;;;;;;;21.67;30.79;98335.63;5038828;28;908;-76
2022/05/12 05:08:07;;;;;;;;;;;;;;;21.67;30.72;98344.91;5036484;28;1037;-76
2022/05/12 05:10:33;;;;;;;;;;;;;;;21.46;31.06;98342.53;5034038;28;969;-76
2022/05/12 05:12:59;;;;;;;;;;;;;;;21.59;30.94;98349.91;5020252;28;977;-76
2022/05/12 05:15:25;;;;;;;;;;;;;;;21.62;30.80;98348.25;5020332;28;900;-76
2022/05/12 05:17:51;;;;;;;;;;;;;;;21.62;30.75;98351.09;5016297;28;1075;-76
2022/05/12 05:20:17;;;;;;;;;;;;;;;21.58;30.99;98350.38;5016446;28;1052;-76
2022/05/12 05:22:43;;;;;;;;;;;;;;;21.64;30.71;98351.44;5016511;28;1017;-76
2022/05/12 05:25:09;;;;;;;;;;;;;;;21.81;30.68;98347.44;5000361;28;1975;-76
2022/05/12 05:27:35;;;;;;;;;;;;;;;21.87;31.45;98352.59;5016522;28;953;-75
2022/05/12 05:30:00;;;;;;;;;;;;;;;22.10;31.36;98355.28;5016207;28;951;-76
2022/05/12 05:32:27;;;;;;;;;;;;;;;22.14;31.20;98356.03;5016611;28;952;-76
2022/05/12 05:34:53;;;;;;;;;;;;;;;21.79;31.47;98366.91;5016068;28;964;-75
2022/05/12 05:37:18;;;;;;;;;;;;;;;21.74;31.40;98358.91;5016494;28;951;-76
2022/05/12 05:39:43;;;;;;;;;;;;;;;21.75;31.49;98354.84;5031355;28;974;-76
2022/05/12 05:42:10;;;;;;;;;;;;;;;21.72;31.13;98358.56;5035960;28;1121;-75
2022/05/12 05:44:35;;;;;;;;;;;;;;;21.66;31.26;98357.50;5035883;28;1980;-75
2022/05/12 05:47:01;;;;;;;;;;;;;;;21.77;30.98;98358.06;5035808;28;1011;-76
2022/05/12 05:49:28;;;;;;;;;;;;;;;21.74;30.90;98367.41;5050816;28;1014;-75
2022/05/12 05:54:38;;;;;;;;;;;;;;;21.67;30.88;98364.75;5055243;28;948;-72
2022/05/12 05:57:04;;;;;;;;;;;;;;;21.93;31.05;98365.81;5056131;28;1138;-75
2022/05/12 05:59:29;;;;;;;;;;;;;;;22.05;31.50;98367.16;5056113;28;1079;-76
2022/05/12 06:01:57;;;;;;;;;;;;;;;22.14;31.49;98370.22;5039659;28;1121;-76
2022/05/12 06:04:22;;;;;;;;;;;;;;;21.99;31.73;98369.72;5055200;28;1973;-77
2022/05/12 06:06:48;;;;;;;;;;;;;;;22.14;31.53;98375.88;5023613;28;993;-75
2022/05/12 06:09:13;;;;;;;;;;;;;;;22.21;31.48;98370.03;5055622;28;991;-74
2022/05/12 06:11:41;;;;;;;;;;;;;;;22.17;31.53;98375.00;5055822;28;1064;-75
2022/05/12 06:14:07;;;;;;;;;;;;;;;22.07;31.19;98365.50;5054837;28;1095;-75
2022/05/12 06:16:32;;;;;;;;;;;;;;;21.91;31.45;98368.25;5037413;28;1025;-75
2022/05/12 06:18:57;;;;;;;;;;;;;;;21.79;31.38;98372.56;5035248;28;981;-76
2022/05/12 06:21:23;;;;;;;;;;;;;;;21.68;31.26;98374.84;5035127;28;900;-75
2022/05/12 06:23:48;;;;;;;;;;;;;;;21.73;31.15;98379.19;5035138;28;1894;-75
2022/05/12 06:26:14;;;;;;;;;;;;;;;21.65;31.16;98380.56;5035397;28;909;-75
2022/05/12 06:28:46;;;;;;;;;;;;;;;21.66;30.79;98371.66;5037636;28;933;-75
2022/05/12 06:31:12;;;;;;;;;;;;;;;21.65;30.78;98372.88;5037099;28;909;-75
2022/05/12 06:33:38;;;;;;;;;;;;;;;21.59;30.61;98380.28;5036997;28;913;-75
2022/05/12 06:36:04;;;;;;;;;;;;;;;21.73;30.08;98374.31;5037172;28;894;-75
2022/05/12 06:38:30;;;;;;;;;;;;;;;21.74;29.90;98364.59;5036939;28;1181;-76
2022/05/12 06:40:55;;;;;;;;;;;;;;;21.70;30.12;98372.34;5037104;28;1159;-75
2022/05/12 06:43:21;;;;;;;;;;;;;;;21.69;30.19;98372.78;5018284;28;1902;-75
2022/05/12 06:45:47;;;;;;;;;;;;;;;21.62;29.77;98376.59;5037039;28;860;-75
2022/05/12 06:48:12;;;;;;;;;;;;;;;21.58;30.14;98373.81;5036961;28;903;-75
2022/05/12 06:50:38;;;;;;;;;;;;;;;21.70;29.55;98378.00;5036771;28;909;-75
2022/05/12 06:53:03;;;;;;;;;;;;;;;21.54;29.77;98377.94;5036665;28;1039;-75
2022/05/12 06:55:29;;;;;;;;;;;;;;;21.61;29.54;98369.31;5036031;28;884;-75
2022/05/12 06:57:55;;;;;;;;;;;;;;;21.45;30.09;98370.06;5037374;28;907;-75
2022/05/12 07:00:21;;;;;;;;;;;;;;;21.56;29.78;98375.50;5035369;28;921;-75
2022/05/12 07:02:47;;;;;;;;;;;;;;;21.72;30.05;98378.41;5034341;28;1022;-75
2022/05/12 07:05:13;;;;;;;;;;;;;;;21.87;31.00;98380.94;5034230;28;1929;-75
2022/05/12 07:07:38;;;;;;;;;;;;;;;21.94;31.31;98377.94;5017491;28;1006;-75
2022/05/12 07:10:04;;;;;;;;;;;;;;;22.13;31.57;98374.28;5033993;28;1211;-75
2022/05/12 07:12:30;;;;;;;;;;;;;;;22.25;31.31;98378.47;5034208;28;986;-75
2022/05/12 07:14:56;;;;;;;;;;;;;;;21.93;31.43;98377.13;5017631;28;940;-75
2022/05/12 07:17:21;;;;;;;;;;;;;;;21.72;31.47;98372.72;4994265;28;1058;-75
2022/05/12 07:19:47;;;;;;;;;;;;;;;21.70;31.23;98380.84;4994625;28;1045;-75
2022/05/12 07:27:40;;;;;;;;;;;;;;;21.62;31.21;98378.63;4994345;28;974;-75
2022/05/12 07:30:06;;;;;;;;;;;;;;;21.80;30.62;98384.69;4994311;28;955;-75
2022/05/12 07:32:31;;;;;;;;;;;;;;;21.66;30.91;98377.31;4994730;28;1182;-75
2022/05/12 07:34:57;;;;;;;;;;;;;;;21.73;30.69;98385.66;4994135;28;1016;-75
2022/05/12 07:37:22;;;;;;;;;;;;;;;21.69;30.26;98387.75;4994662;28;993;-75
2022/05/12 07:39:48;;;;;;;;;;;;;;;21.63;30.29;98381.00;4994188;28;931;-75
2022/05/12 07:42:13;;;;;;;;;;;;;;;21.85;30.31;98381.34;4994321;28;1102;-75
2022/05/12 07:44:40;;;;;;;;;;;;;;;21.57;30.41;98382.75;4993935;28;2005;-75
2022/05/12 07:47:09;;;;;;;;;;;;;;;21.59;30.33;98380.28;4994408;28;1033;-75
2022/05/12 07:49:36;;;;;;;;;;;;;;;21.44;30.67;98379.75;4994136;28;949;-75
2022/05/12 07:52:05;;;;;;;;;;;;;;;21.55;30.39;98379.53;4994406;28;977;-75
2022/05/12 07:54:30;;;;;;;;;;;;;;;21.92;31.39;98374.75;5010433;28;1060;-75
2022/05/12 07:56:57;;;;;;;;;;;;;;;22.09;31.32;98384.88;5035963;28;927;-75
2022/05/12 07:59:22;;;;;;;;;;;;;;;22.26;31.13;98375.19;5035707;28;913;-75
2022/05/12 08:01:48;;;;;;;;;;;;;;;21.90;31.34;98382.88;5035534;28;1076;-75
2022/05/12 08:04:13;;;;;;;;;;;;;;;21.85;31.25;98370.81;5035954;28;1997;-75
2022/05/12 08:06:42;;;;;;;;;;;;;;;21.76;31.38;98379.13;5035857;28;1023;-75
2022/05/12 08:09:08;;;;;;;;;;;;;;;21.71;31.23;98365.47;5035396;28;899;-75
2022/05/12 08:11:33;;;;;;;;;;;;;;;21.73;30.93;98368.66;5035847;28;893;-75
2022/05/12 08:13:58;;;;;;;;;;;;;;;21.78;31.10;98376.63;5035987;28;1072;-75
2022/05/12 08:16:24;;;;;;;;;;;;;;;21.79;30.82;98377.44;5013080;28;1013;-75
2022/05/12 08:18:50;;;;;;;;;;;;;;;21.69;31.21;98370.75;5013201;28;991;-75
2022/05/12 08:21:15;;;;;;;;;;;;;;;21.72;31.06;98378.41;5013773;28;969;-75
2022/05/12 08:23:41;;;;;;;;;;;;;;;21.70;30.72;98374.38;4980419;28;1910;-75
2022/05/12 08:26:06;;;;;;;;;;;;;;;21.54;31.05;98377.94;5013622;28;976;-75
2022/05/12 08:28:32;;;;;;;;;;;;;;;21.63;30.69;98375.34;5015299;28;922;-75
2022/05/12 08:30:57;;;;;;;;;;;;;;;21.62;30.58;98373.75;5017619;28;957;-75
2022/05/12 08:33:23;;;;;;;;;;;;;;;21.51;30.84;98367.50;5017067;28;961;-75
2022/05/12 08:35:48;;;;;;;;;;;;;;;21.61;30.49;98375.00;5017112;28;961;-75
2022/05/12 08:38:14;;;;;;;;;;;;;;;21.55;31.18;98373.88;5017386;28;1118;-75
2022/05/12 08:40:45;;;;;;;;;;;;;;;21.74;31.64;98375.91;4977727;28;1062;-75
2022/05/12 08:43:13;;;;;;;;;;;;;;;21.96;31.54;98367.75;4977852;28;950;-75
2022/05/12 08:45:38;;;;;;;;;;;;;;;22.13;31.03;98367.84;4977941;28;1014;-75
2022/05/12 08:48:04;;;;;;;;;;;;;;;21.87;31.06;98378.09;4992316;28;977;-75
2022/05/12 08:50:30;;;;;;;;;;;;;;;21.79;31.00;98372.56;5001156;28;940;-75
2022/05/12 08:52:57;;;;;;;;;;;;;;;21.56;31.44;98375.50;5017030;28;987;-75
2022/05/12 08:55:28;;;;;;;;;;;;;;;21.60;31.24;98370.53;5017147;28;1099;-76
2022/05/12 08:57:58;;;;;;;;;;;;;;;21.49;31.27;98369.97;5000736;28;968;-75
2022/05/12 09:00:23;;;;;;;;;;;;;;;21.57;30.86;98365.75;5016811;28;1031;-75
2022/05/12 09:02:55;;;;;;;;;;;;;;;21.75;30.38;98369.00;5000698;28;964;-75
2022/05/12 09:05:26;;;;;;;;;;;;;;;21.59;30.55;98377.44;5016440;28;1983;-75
2022/05/12 09:07:52;;;;;;;;;;;;;;;21.56;30.54;98361.34;5000545;28;1074;-75
2022/05/12 09:10:31;;;;;;;;;;;;;;;21.48;30.81;98360.69;5016458;28;986;-75
2022/05/12 09:12:59;;;;;;;;;;;;;;;21.65;30.24;98361.53;5037603;28;891;-75
2022/05/12 09:15:31;;;;;;;;;;;;;;;21.55;30.56;98360.56;5038782;28;817;-75
2022/05/12 09:17:58;;;;;;;;;;;;;;;21.53;30.43;98350.88;5037479;28;881;-75
2022/05/12 09:20:24;;;;;;;;;;;;;;;21.70;30.23;98355.34;5038685;28;874;-75
2022/05/12 09:22:49;;;;;;;;;;;;;;;21.54;30.13;98355.31;5038596;28;919;-75
2022/05/12 09:25:36;;;;;;;;;;;;;;;21.45;30.57;98353.06;5038291;28;1993;-75
2022/05/12 09:28:17;;;;;;;;;;;;;;;21.43;30.26;98354.72;5038247;28;1567;-75
2022/05/12 09:30:43;;;;;;;;;;;;;;;21.58;30.15;98359.66;5038323;28;839;-75
2022/05/12 09:33:08;;;;;;;;;;;;;;;21.87;30.40;98349.78;5038319;28;963;-75
2022/05/12 09:35:35;;;;;;;;;;;;;;;21.97;30.38;98348.72;5038375;28;984;-75
2022/05/12 09:38:00;;;;;;;;;;;;;;;22.05;30.32;98350.16;5036028;28;971;-75
2022/05/12 09:40:26;;;;;;;;;;;;;;;21.99;30.25;98354.75;5001866;28;1036;-75
2022/05/12 09:42:52;;;;;;;;;;;;;;;21.78;30.43;98353.19;5035771;28;1073;-76
2022/05/12 09:45:18;;;;;;;;;;;;;;;21.82;30.37;98351.88;5035528;28;1985;-73
2022/05/12 09:47:43;;;;;;;;;;;;;;;21.71;30.45;98356.97;5035599;28;1177;-74
2022/05/12 09:50:35;;;;;;;;;;;;;;;21.64;30.76;98348.63;5035808;28;1061;-74
2022/05/12 09:53:01;;;;;;;;;;;;;;;21.61;30.47;98355.16;4957549;28;1063;-74
2022/05/12 09:55:31;;;;;;;;;;;;;;;21.59;30.48;98351.97;4957378;28;953;-74
2022/05/12 09:57:56;;;;;;;;;;;;;;;21.62;30.54;98356.75;4957399;28;976;-74
2022/05/12 10:00:25;;;;;;;;;;;;;;;21.72;30.12;98355.72;4957235;28;973;-74
2022/05/12 10:08:44;;;;;;;;;;;;;;;21.54;30.02;98339.09;4911601;29;944;-73
2022/05/12 10:11:10;;;;;;;;;;;;;;;21.45;30.15;98335.25;4884326;29;1090;-73
2022/05/12 10:13:38;;;;;;;;;;;;;;;21.67;30.53;98336.44;4884709;29;1019;-73
2022/05/12 10:16:03;;;;;;;;;;;;;;;22.00;30.04;98342.16;4899305;29;2195;-74
2022/05/12 10:18:32;;;;;;;;;;;;;;;22.10;29.84;98335.47;4884306;29;928;-73
2022/05/12 10:21:01;;;;;;;;;;;;;;;21.81;30.06;98330.44;4899920;29;1016;-74
2022/05/12 10:23:28;;;;;;;;;;;;;;;21.65;30.41;98333.22;4884389;29;1898;-73
2022/05/12 10:26:07;;;;;;;;;;;;;;;21.57;30.38;98337.44;4884298;29;1008;-73
2022/05/12 10:29:05;;;;;;;;;;;;;;;21.63;30.20;98335.69;4899666;29;1077;-74
2022/05/12 10:31:35;;;;;;;;;;;;;;;21.56;30.30;98330.19;4918231;29;1104;-74
2022/05/12 10:34:01;;;;;;;;;;;;;;;21.55;30.57;98339.91;4918508;29;1079;-74
2022/05/12 10:36:53;;;;;;;;;;;;;;;21.55;30.41;98322.91;4918491;29;1021;-74
2022/05/12 10:39:28;;;;;;;;;;;;;;;21.41;30.38;98332.53;4899620;29;937;-74
2022/05/12 10:42:12;;;;;;;;;;;;;;;21.68;29.98;98323.84;4864944;29;1124;-74
2022/05/12 10:44:47;;;;;;;;;;;;;;;21.45;30.08;98323.94;4880540;29;1982;-74
2022/05/12 10:47:18;;;;;;;;;;;;;;;21.50;30.05;98326.25;4880844;29;974;-74
2022/05/12 10:49:44;;;;;;;;;;;;;;;21.69;30.16;98325.44;4880614;29;1005;-74
2022/05/12 10:52:27;;;;;;;;;;;;;;;21.94;29.86;98321.25;4880564;29;1067;-74
2022/05/12 10:55:11;;;;;;;;;;;;;;;22.04;29.63;98320.22;4880597;29;1118;-73
2022/05/12 10:57:46;;;;;;;;;;;;;;;21.62;30.23;98322.78;4880545;29;931;-73
2022/05/12 11:00:11;;;;;;;;;;;;;;;21.62;30.16;98321.97;4880666;29;937;-74
2022/05/12 11:02:41;;;;;;;;;;;;;;;21.49;30.26;98325.47;4880449;29;1068;-73
2022/05/12 11:05:10;;;;;;;;;;;;;;;21.61;30.15;98321.19;4874856;29;1919;-73
2022/05/12 11:07:39;;;;;;;;;;;;;;;21.72;29.92;98316.09;4925641;29;995;-73
2022/05/12 11:10:05;;;;;;;;;;;;;;;21.50;30.23;98320.59;4899305;29;1040;-73
2022/05/12 11:12:34;;;;;;;;;;;;;;;21.62;30.00;98313.50;4911943;29;1003;-73
2022/05/12 11:15:07;;;;;;;;;;;;;;;21.65;29.90;98304.91;4924492;28;1035;-74
2022/05/12 11:17:36;;;;;;;;;;;;;;;21.49;30.05;98316.19;5014180;28;1067;-73
2022/05/12 11:20:04;;;;;;;;;;;;;;;21.45;30.15;98318.28;5014206;28;958;-73
2022/05/12 11:22:32;;;;;;;;;;;;;;;21.42;30.37;98305.81;5013945;28;967;-74
2022/05/12 11:25:15;;;;;;;;;;;;;;;21.60;30.00;98308.25;4997380;28;1988;-73
2022/05/12 11:27:43;;;;;;;;;;;;;;;21.49;29.93;98302.00;5014397;28;912;-74
2022/05/12 11:30:12;;;;;;;;;;;;;;;21.57;29.80;98303.47;5014089;28;991;-74
2022/05/12 11:32:38;;;;;;;;;;;;;;;21.83;29.92;98304.50;5014238;28;926;-74
2022/05/12 11:35:05;;;;;;;;;;;;;;;22.03;29.66;98307.28;5013984;28;1064;-74
2022/05/12 11:37:36;;;;;;;;;;;;;;;21.92;29.76;98303.91;5013819;28;955;-75
2022/05/12 11:40:01;;;;;;;;;;;;;;;21.72;29.95;98295.47;5016459;28;955;-75
2022/05/12 11:42:28;;;;;;;;;;;;;;;21.67;30.07;98293.94;5053073;28;1124;-74
2022/05/12 11:44:53;;;;;;;;;;;;;;;21.64;30.34;98286.31;5053559;28;1914;-74
2022/05/12 11:47:22;;;;;;;;;;;;;;;21.67;30.18;98288.28;5053598;28;956;-74
2022/05/12 11:50:04;;;;;;;;;;;;;;;21.64;30.33;98291.97;5051343;28;1467;-75
2022/05/12 11:52:30;;;;;;;;;;;;;;;21.68;29.84;98283.41;5013795;28;1432;-74
2022/05/12 11:54:56;;;;;;;;;;;;;;;21.57;29.96;98281.63;5013907;28;1019;-75
2022/05/12 11:57:32;;;;;;;;;;;;;;;21.60;30.19;98285.59;5013670;28;1064;-74
2022/05/12 11:59:57;;;;;;;;;;;;;;;21.62;30.09;98279.50;5013865;28;974;-75
2022/05/12 12:02:29;;;;;;;;;;;;;;;21.68;29.68;98281.38;5012765;28;1142;-74
2022/05/12 12:04:58;;;;;;;;;;;;;;;21.64;29.74;98275.00;5013639;28;1961;-75
2022/05/12 12:07:32;;;;;;;;;;;;;;;21.72;29.65;98278.47;5013593;28;1164;-75
2022/05/12 12:10:04;;;;;;;;;;;;;;;22.00;29.79;98274.16;5013429;28;1151;-75
2022/05/12 12:12:45;;;;;;;;;;;;;;;21.87;29.59;98276.91;5013433;28;1023;-75
2022/05/12 12:15:11;;;;;;;;;;;;;;;21.79;30.04;98270.59;5013605;28;1030;-75
2022/05/12 12:17:37;;;;;;;;;;;;;;;21.70;30.08;98272.44;5013240;28;1294;-74
2022/05/12 12:20:05;;;;;;;;;;;;;;;21.68;29.78;98258.72;5013381;28;938;-75
2022/05/12 12:22:46;;;;;;;;;;;;;;;21.70;29.91;98261.91;5015400;28;1120;-75
2022/05/12 12:25:15;;;;;;;;;;;;;;;21.62;30.23;98254.81;5032659;28;1909;-75
2022/05/12 12:27:49;;;;;;;;;;;;;;;21.56;30.03;98253.75;5032904;28;1028;-75
2022/05/12 12:30:20;;;;;;;;;;;;;;;21.79;29.71;98247.94;5032877;28;1022;-75
2022/05/12 12:33:09;;;;;;;;;;;;;;;21.71;29.96;98240.84;5033179;28;961;-75
2022/05/12 12:35:52;;;;;;;;;;;;;;;21.75;29.61;98247.22;4954757;28;998;-74
2022/05/12 12:38:36;;;;;;;;;;;;;;;21.59;29.86;98244.34;4955123;28;1139;-75
2022/05/12 12:41:02;;;;;;;;;;;;;;;21.52;30.15;98244.53;4954669;28;1216;-74
2022/05/12 12:43:29;;;;;;;;;;;;;;;21.59;29.73;98239.50;4954831;28;1906;-74
2022/05/12 12:45:54;;;;;;;;;;;;;;;21.61;30.01;98230.56;4938820;29;1425;-75
2022/05/12 12:48:34;;;;;;;;;;;;;;;21.63;29.78;98232.97;4954973;28;963;-74
2022/05/12 12:50:59;;;;;;;;;;;;;;;21.52;29.99;98230.38;4938730;29;1013;-75
2022/05/12 12:56:30;;;;;;;;;;;;;;;21.37;30.09;98220.59;4954705;28;1135;-74
2022/05/12 12:56:32;;;;;;;;;;;;;;;21.49;30.04;98225.56;4964220;28;1018;-74
2022/05/12 12:59:07;;;;;;;;;;;;;;;21.51;29.84;98220.28;4974060;28;1066;-74
2022/05/12 13:01:46;;;;;;;;;;;;;;;21.38;30.23;98217.31;4954875;29;1335;-75
2022/05/12 13:04:11;;;;;;;;;;;;;;;21.53;30.22;98210.09;4954609;29;1915;-74
2022/05/12 13:06:37;;;;;;;;;;;;;;;21.89;29.84;98208.47;4938767;29;1066;-75
2022/05/12 13:09:12;;;;;;;;;;;;;;;21.96;29.85;98213.94;4954487;29;961;-75
2022/05/12 13:11:38;;;;;;;;;;;;;;;21.70;29.84;98208.09;4923911;28;999;-75
2022/05/12 13:14:05;;;;;;;;;;;;;;;21.73;29.81;98201.56;4994595;28;933;-75
2022/05/12 13:16:33;;;;;;;;;;;;;;;21.67;30.25;98206.16;4980433;28;1045;-75
2022/05/12 13:18:58;;;;;;;;;;;;;;;21.63;29.88;98208.28;4997147;28;1080;-75
2022/05/12 13:21:25;;;;;;;;;;;;;;;21.59;30.17;98204.72;4980498;28;1026;-75